LFSB 181700Z 29004KT 9999 SCT040 BKN060 BKN076 22/17 Q1012 NOSIG

ElémentsDécodage
LFSB Station météo située sur l'aérodrome de BALE Mulhouse
181700Z émis le 18 du mois à 17h00 UTC
29004KT vent du 290°, 04 noeuds
9999 visibilité horizontale supérieure à 10 Km
SCT040 nuages épars (3/8 à 4/8) à 4000 pieds
BKN060 nuages morcelés (5/8 à 7/8) à 6000 pieds
BKN076 nuages morcelés (5/8 à 7/8) à 7600 pieds
22/17 température 22°C, point de rosée 17°C
 soit une humidité relative de 73%
Q1012 la pression au niveau de la mer (QNH) est de 1012 hPa
NOSIG Pas de changement significatif prévu au cours des deux heures suivant l'heure de l'observation